Time;durP1;ratioP1;P1;durP2;ratioP2;P2;SDS_P1;SDS_P2;PMS_P1;PMS_P2;Temp;Humidity;BMP_temperature;BMP_pressure;BME280_temperature;BME280_humidity;BME280_pressure;Samples;Min_cycle;Max_cycle;Signal;HPM_P1;HPM_P2
2022/12/17 13:06:36;;;;;;;29.77;20.10;;;;;;;11.37;100.00;98292.03;5075348;28;20280;-63
2022/12/17 13:09:22;;;;;;;30.35;19.55;;;;;;;11.41;100.00;98308.97;5075204;28;20185;-63
2022/12/17 13:11:48;;;;;;;28.95;19.20;;;;;;;11.18;100.00;98256.28;5075689;28;20271;-63
2022/12/17 13:14:29;;;;;;;29.48;20.83;;;;;;;11.52;100.00;98304.66;5075230;28;20634;-64
2022/12/17 13:17:26;;;;;;;30.52;19.45;;;;;;;11.58;100.00;98303.38;5075319;28;20541;-63
2022/12/17 13:19:55;;;;;;;30.95;19.33;;;;;;;11.60;100.00;98306.69;5075806;28;20182;-63
2022/12/17 13:22:20;;;;;;;32.92;22.02;;;;;;;11.52;100.00;98307.25;5074971;28;20177;-64
2022/12/17 13:24:48;;;;;;;37.42;24.95;;;;;;;11.23;100.00;98253.34;5075520;28;20173;-64
2022/12/17 13:27:25;;;;;;;39.75;25.13;;;;;;;11.52;100.00;98309.00;5074816;28;20188;-64
2022/12/17 13:29:50;;;;;;;33.92;23.08;;;;;;;11.46;100.00;98305.13;5074692;28;20193;-64
2022/12/17 13:32:30;;;;;;;33.63;22.80;;;;;;;11.01;100.00;98232.53;5074974;28;20173;-64
2022/12/17 13:35:14;;;;;;;40.90;26.25;;;;;;;11.28;100.00;98272.81;5075627;28;20509;-64
2022/12/17 13:37:58;;;;;;;33.92;24.13;;;;;;;11.52;100.00;98317.63;5074664;28;20654;-64
2022/12/17 13:40:40;;;;;;;35.58;23.67;;;;;;;11.51;100.00;98315.13;5074670;28;20165;-64
2022/12/17 13:43:25;;;;;;;33.38;22.17;;;;;;;11.54;100.00;98327.84;5074601;28;20179;-64
2022/12/17 13:45:53;;;;;;;33.50;21.63;;;;;;;11.21;100.00;98296.66;5074891;28;20157;-64
2022/12/17 13:48:22;;;;;;;41.60;27.48;;;;;;;11.52;100.00;98342.69;5074516;28;20177;-64
2022/12/17 13:50:58;;;;;;;48.22;32.13;;;;;;;11.49;100.00;98367.06;5074481;28;20610;-63
2022/12/17 13:53:25;;;;;;;48.83;30.35;;;;;;;11.44;100.00;98361.38;5074029;28;20204;-64
2022/12/17 13:55:53;;;;;;;45.55;28.35;;;;;;;11.44;100.00;98376.13;5074354;28;20196;-64
2022/12/17 13:58:32;;;;;;;44.13;27.35;;;;;;;11.10;100.00;98322.50;5074269;28;20177;-64
2022/12/17 14:01:09;;;;;;;42.75;26.75;;;;;;;11.16;100.00;98324.66;5074268;28;20180;-64
2022/12/17 14:03:36;;;;;;;38.50;25.00;;;;;;;11.15;100.00;98323.00;5074559;28;20204;-64
2022/12/17 14:06:07;;;;;;;37.13;24.55;;;;;;;11.53;100.00;98362.47;5074172;28;20204;-64
2022/12/17 14:08:35;;;;;;;36.67;22.42;;;;;;;11.24;100.00;98324.91;5074118;28;20172;-64
2022/12/17 14:13:47;;;;;;;39.00;22.95;;;;;;;11.31;100.00;98354.59;5074101;28;20625;-64
2022/12/17 14:16:17;;;;;;;34.88;24.40;;;;;;;11.20;100.00;98363.16;5073932;28;20184;-64
2022/12/17 14:19:01;;;;;;;41.83;23.42;;;;;;;11.12;100.00;98367.22;5072417;28;20542;-64
2022/12/17 14:21:28;;;;;;;29.38;20.20;;;;;;;11.02;100.00;98361.03;5074237;28;20587;-64
2022/12/17 14:23:54;;;;;;;32.53;20.05;;;;;;;10.83;100.00;98363.28;5073981;28;20548;-64
2022/12/17 14:26:20;;;;;;;37.05;21.00;;;;;;;10.53;100.00;98318.84;5073694;28;20184;-64
2022/12/17 14:28:54;;;;;;;33.92;20.60;;;;;;;10.58;100.00;98351.25;5073364;28;20179;-64
2022/12/17 14:31:26;;;;;;;31.13;21.08;;;;;;;10.47;100.00;98345.16;5074104;28;20605;-64
2022/12/17 14:34:09;;;;;;;28.95;20.88;;;;;;;10.60;100.00;98356.28;5073510;28;20280;-64
2022/12/17 14:36:38;;;;;;;39.50;22.15;;;;;;;10.53;100.00;98355.06;5073952;28;20247;-63
2022/12/17 14:39:31;;;;;;;42.05;23.88;;;;;;;10.42;100.00;98361.00;5073481;28;20227;-64
2022/12/17 14:44:57;;;;;;;48.97;29.15;;;;;;;10.52;100.00;98379.28;5073753;28;20164;-63
2022/12/17 14:47:26;;;;;;;58.30;36.88;;;;;;;10.48;100.00;98383.00;5073667;28;20177;-63
2022/12/17 14:49:59;;;;;;;32.25;22.38;;;;;;;10.13;100.00;98341.47;5073239;28;20181;-64
2022/12/17 14:52:31;;;;;;;46.72;29.42;;;;;;;10.40;100.00;98385.31;5073085;28;20218;-63
2022/12/17 14:54:57;;;;;;;48.95;30.65;;;;;;;10.12;100.00;98333.81;5073186;28;20176;-63
2022/12/17 14:57:22;;;;;;;43.35;28.92;;;;;;;10.30;100.00;98373.94;5072792;28;20177;-63
2022/12/17 14:59:49;;;;;;;44.85;29.55;;;;;;;10.12;100.00;98344.16;5072799;28;20233;-64
2022/12/17 15:02:25;;;;;;;38.83;26.77;;;;;;;10.42;100.00;98386.03;5073552;28;20619;-63
2022/12/17 15:04:54;;;;;;;11.13;9.63;;;;;;;10.68;100.00;98396.22;5072879;28;20188;-63
2022/12/17 15:07:24;;;;;;;22.08;15.40;;;;;;;10.52;100.00;98358.59;5072991;28;20177;-63
2022/12/17 15:09:51;;;;;;;33.65;21.45;;;;;;;10.47;100.00;98345.16;5073528;28;20169;-63
2022/12/17 15:12:17;;;;;;;42.90;26.08;;;;;;;10.74;100.00;98395.00;5072716;28;20221;-63
2022/12/17 15:14:43;;;;;;;22.80;14.70;;;;;;;10.41;100.00;98346.41;5072698;28;20177;-64
2022/12/17 15:17:08;;;;;;;13.07;9.48;;;;;;;10.47;100.00;98358.94;5072719;28;20188;-64
2022/12/17 15:19:33;;;;;;;12.88;9.35;;;;;;;10.48;100.00;98321.78;5073547;28;20177;-63
2022/12/17 15:21:59;;;;;;;12.57;9.88;;;;;;;10.94;100.00;98384.06;5073062;28;20264;-64
2022/12/17 15:24:24;;;;;;;12.15;10.07;;;;;;;10.56;100.00;98318.66;5073242;28;20176;-63
2022/12/17 15:26:49;;;;;;;13.40;9.27;;;;;;;10.74;100.00;98367.34;5072676;28;20318;-63
2022/12/17 15:29:15;;;;;;;20.08;12.70;;;;;;;11.06;100.00;98424.63;5072567;28;20643;-63
2022/12/17 15:31:42;;;;;;;30.42;22.25;;;;;;;10.75;100.00;98375.94;5073547;28;20205;-63
2022/12/17 15:34:10;;;;;;;25.20;16.50;;;;;;;10.75;100.00;98391.47;5072465;28;20731;-63
2022/12/17 15:36:37;;;;;;;12.20;10.80;;;;;;;10.77;100.00;98408.56;5072194;28;20193;-63
2022/12/17 15:39:05;;;;;;;14.80;12.13;;;;;;;10.78;100.00;98423.13;5072520;28;20173;-63
2022/12/17 15:44:14;;;;;;;28.40;21.00;;;;;;;10.83;100.00;98459.03;5072757;28;20175;-63
2022/12/17 15:46:40;;;;;;;41.17;28.55;;;;;;;10.98;100.00;98499.44;5072339;28;20185;-63
2022/12/17 15:49:06;;;;;;;39.58;30.33;;;;;;;10.83;100.00;98482.34;5070364;28;20223;-63
2022/12/17 15:51:31;;;;;;;17.70;14.35;;;;;;;11.27;100.00;98534.50;5070501;28;20291;-63
2022/12/17 15:53:56;;;;;;;33.47;23.05;;;;;;;11.40;100.00;98533.56;5069839;28;20291;-64
2022/12/17 15:56:27;;;;;;;23.88;17.38;;;;;;;11.39;100.00;98554.38;5069955;28;20246;-63
2022/12/17 15:58:55;;;;;;;30.77;21.63;;;;;;;11.31;100.00;98525.56;5070041;28;20189;-63
2022/12/17 16:01:21;;;;;;;30.45;20.95;;;;;;;11.35;100.00;98491.59;5070409;28;20181;-63
2022/12/17 16:03:46;;;;;;;31.60;20.70;;;;;;;11.12;100.00;98419.84;5070249;28;20185;-63
2022/12/17 16:06:12;;;;;;;21.45;14.82;;;;;;;11.21;100.00;98446.88;5069842;28;20631;-63
2022/12/17 16:08:38;;;;;;;16.58;12.00;;;;;;;11.55;100.00;98482.41;5069791;28;20185;-64
2022/12/17 16:11:08;;;;;;;20.55;12.85;;;;;;;11.61;100.00;98484.59;5069816;28;20188;-64
2022/12/17 16:13:35;;;;;;;16.48;12.05;;;;;;;11.69;100.00;98479.69;5070297;28;20228;-63
2022/12/17 16:16:00;;;;;;;13.98;10.48;;;;;;;11.81;100.00;98474.44;5069781;28;20185;-63
2022/12/17 16:18:26;;;;;;;16.85;11.35;;;;;;;11.87;100.00;98470.56;5074257;28;20711;-64
2022/12/17 16:20:51;;;;;;;19.92;12.50;;;;;;;11.45;100.00;98406.28;5075689;28;20196;-64
2022/12/17 16:23:16;;;;;;;14.82;11.60;;;;;;;11.82;100.00;98449.34;5076397;28;20189;-64
2022/12/17 16:25:42;;;;;;;14.68;11.32;;;;;;;11.55;100.00;98389.94;5076319;28;20650;-64
2022/12/17 16:28:08;;;;;;;16.27;10.18;;;;;;;11.93;100.00;98449.38;5075963;28;20180;-64
2022/12/17 16:30:33;;;;;;;11.43;8.82;;;;;;;11.85;100.00;98397.28;5075966;28;20263;-64
2022/12/17 16:32:59;;;;;;;14.73;10.15;;;;;;;11.95;100.00;98418.97;5075495;28;20226;-64
2022/12/17 16:35:25;;;;;;;13.57;10.40;;;;;;;12.08;100.00;98449.06;5076376;28;20177;-64
2022/12/17 16:37:51;;;;;;;16.63;10.50;;;;;;;11.72;100.00;98399.13;5076128;28;20187;-64
2022/12/17 16:40:16;;;;;;;16.73;10.07;;;;;;;11.90;100.00;98426.28;5075816;28;20172;-64
2022/12/17 16:42:41;;;;;;;12.45;8.57;;;;;;;11.65;100.00;98374.56;5075711;28;20563;-64
2022/12/17 16:45:07;;;;;;;17.70;9.90;;;;;;;11.74;100.00;98379.09;5075942;28;20181;-63
2022/12/17 16:47:33;;;;;;;13.20;8.73;;;;;;;11.73;100.00;98380.03;5075669;28;20173;-64
2022/12/17 16:49:58;;;;;;;18.90;12.20;;;;;;;11.52;100.00;98337.50;5075659;28;20227;-64
2022/12/17 16:52:24;;;;;;;11.90;9.30;;;;;;;12.04;100.00;98421.75;5075456;28;20169;-64
2022/12/17 16:54:49;;;;;;;13.20;9.50;;;;;;;11.75;100.00;98371.22;5075841;28;20169;-64
2022/12/17 16:57:15;;;;;;;18.80;12.18;;;;;;;11.75;100.00;98371.22;5076020;28;20179;-64
2022/12/17 16:59:40;;;;;;;15.20;10.23;;;;;;;11.74;100.00;98363.53;5075455;28;20177;-64
2022/12/17 17:02:11;;;;;;;12.93;9.30;;;;;;;12.01;100.00;98405.59;5075659;28;20173;-64
2022/12/17 17:04:38;;;;;;;11.48;8.55;;;;;;;11.75;100.00;98358.25;5076160;28;20227;-64
2022/12/17 17:07:03;;;;;;;9.65;7.75;;;;;;;12.10;100.00;98403.13;5075513;28;20234;-64
2022/12/17 17:09:29;;;;;;;7.95;6.50;;;;;;;12.02;100.00;98357.97;5075571;28;20181;-64
2022/12/17 17:11:58;;;;;;;12.00;6.90;;;;;;;11.93;100.00;98319.75;5075170;28;20581;-64
2022/12/17 17:14:25;;;;;;;8.65;5.72;;;;;;;12.71;100.00;98409.69;5075085;28;20197;-64
2022/12/17 17:16:51;;;;;;;10.10;8.50;;;;;;;12.84;100.00;98395.63;5075114;28;20544;-64
2022/12/17 17:19:17;;;;;;;12.95;10.00;;;;;;;12.69;100.00;98364.81;5075080;28;20208;-64
2022/12/17 17:21:52;;;;;;;20.73;13.65;;;;;;;12.86;100.00;98388.56;5074975;28;20223;-64
2022/12/17 17:24:20;;;;;;;19.25;11.82;;;;;;;12.74;100.00;98380.88;5074945;28;20738;-64
2022/12/17 17:26:45;;;;;;;23.83;16.67;;;;;;;12.70;100.00;98392.44;5074864;28;20217;-64
2022/12/17 17:29:11;;;;;;;15.60;10.93;;;;;;;12.49;100.00;98357.78;5074206;28;20216;-64
2022/12/17 17:31:37;;;;;;;18.00;11.90;;;;;;;12.86;100.00;98434.44;5075168;28;20250;-64
2022/12/17 17:34:08;;;;;;;14.50;10.55;;;;;;;12.64;100.00;98419.72;5074991;28;20296;-64
2022/12/17 17:36:34;;;;;;;15.85;10.40;;;;;;;12.48;100.00;98413.22;5074755;28;20627;-64
2022/12/17 17:39:01;;;;;;;15.63;10.48;;;;;;;12.42;100.00;98443.03;5074757;28;20227;-64
2022/12/17 17:41:29;;;;;;;15.75;10.65;;;;;;;12.56;100.00;98483.53;5074330;28;20173;-64
2022/12/17 17:43:59;;;;;;;16.33;10.25;;;;;;;12.39;100.00;98470.97;5074603;28;20227;-64
2022/12/17 17:46:26;;;;;;;12.00;10.35;;;;;;;12.06;100.00;98439.75;5074230;28;20678;-64
2022/12/17 17:48:54;;;;;;;16.38;10.68;;;;;;;12.27;100.00;98483.13;5074826;28;20181;-64
2022/12/17 17:51:22;;;;;;;16.52;11.75;;;;;;;11.80;100.00;98410.56;5052765;28;20178;-64
2022/12/17 17:53:50;;;;;;;28.40;19.98;;;;;;;11.74;100.00;98407.59;5052765;28;20247;-64
2022/12/17 17:56:19;;;;;;;51.45;33.42;;;;;;;11.93;100.00;98431.22;5052246;28;20569;-64
2022/12/17 17:58:50;;;;;;;49.38;33.83;;;;;;;12.08;100.00;98474.19;5052206;28;20540;-64
2022/12/17 18:01:38;;;;;;;47.70;33.63;;;;;;;11.78;100.00;98448.72;5052114;28;20315;-64
2022/12/17 18:04:05;;;;;;;46.28;30.83;;;;;;;11.95;100.00;98509.72;5052729;28;20181;-64
2022/12/17 18:06:31;;;;;;;50.47;30.88;;;;;;;11.50;100.00;98463.78;5052298;28;20580;-64
2022/12/17 18:08:58;;;;;;;46.38;32.13;;;;;;;11.67;100.00;98504.91;5052088;28;20210;-64
2022/12/17 18:11:27;;;;;;;48.55;32.67;;;;;;;11.50;100.00;98500.84;5052171;28;20279;-64
2022/12/17 18:13:56;;;;;;;49.83;33.65;;;;;;;11.37;100.00;98494.09;5051565;28;20208;-64
2022/12/17 18:16:36;;;;;;;46.67;33.85;;;;;;;11.24;100.00;98508.78;5051646;28;20272;-64
2022/12/17 18:19:21;;;;;;;52.75;34.47;;;;;;;11.16;100.00;98511.09;5052120;28;20564;-64
2022/12/17 18:21:47;;;;;;;60.33;40.08;;;;;;;10.93;100.00;98458.34;5058739;28;20193;-64
2022/12/17 18:24:17;;;;;;;55.38;35.30;;;;;;;11.11;100.00;98497.63;5073750;28;20208;-64
2022/12/17 18:26:44;;;;;;;55.05;35.78;;;;;;;10.70;100.00;98460.81;5074018;28;20183;-64
2022/12/17 18:29:35;;;;;;;54.40;36.45;;;;;;;10.87;100.00;98525.22;5074487;28;20266;-64
2022/12/17 18:32:01;;;;;;;52.25;35.20;;;;;;;10.81;100.00;98523.03;5073141;28;20197;-64
2022/12/17 18:34:26;;;;;;;51.90;34.60;;;;;;;10.76;100.00;98523.38;5073164;28;20567;-64
2022/12/17 18:36:52;;;;;;;56.33;36.17;;;;;;;10.40;100.00;98473.25;5073539;28;20256;-64
2022/12/17 18:39:20;;;;;;;59.50;39.22;;;;;;;10.75;100.00;98542.38;5073440;28;20177;-64
2022/12/17 18:44:36;;;;;;;64.00;41.78;;;;;;;10.45;100.00;98502.22;5058158;28;20203;-64
2022/12/17 18:47:02;;;;;;;56.15;35.40;;;;;;;10.37;100.00;98492.38;5068571;28;20195;-64
2022/12/17 18:49:27;;;;;;;44.90;32.88;;;;;;;10.69;100.00;98539.41;5074449;28;20185;-64
2022/12/17 18:51:53;;;;;;;49.03;33.10;;;;;;;10.69;100.00;98539.41;5072549;28;20232;-64
2022/12/17 18:54:24;;;;;;;48.90;35.65;;;;;;;10.17;100.00;98471.34;5073635;28;20203;-64
2022/12/17 18:56:56;;;;;;;51.03;37.10;;;;;;;10.62;100.00;98553.69;5073429;28;20170;-64
2022/12/17 18:59:25;;;;;;;60.70;39.67;;;;;;;10.05;100.00;98472.97;5030111;28;20197;-64
2022/12/17 19:01:55;;;;;;;64.93;41.00;;;;;;;10.24;100.00;98512.22;5030991;28;20256;-64
2022/12/17 19:04:21;;;;;;;74.18;45.03;;;;;;;10.59;100.00;98556.44;5013945;28;20289;-64
2022/12/17 19:06:48;;;;;;;63.55;42.35;;;;;;;10.22;100.00;98508.91;5030710;28;20181;-64
2022/12/17 19:09:25;;;;;;;68.18;41.20;;;;;;;10.47;100.00;98562.44;5031130;28;20193;-64
2022/12/17 19:11:51;;;;;;;74.90;40.80;;;;;;;9.96;100.00;98509.75;5031280;28;20174;-64
2022/12/17 19:14:17;;;;;;;60.40;38.03;;;;;;;9.85;100.00;98501.84;5030651;28;20268;-64
2022/12/17 19:16:43;;;;;;;66.03;38.00;;;;;;;9.93;100.00;98522.03;5031361;28;20178;-63
2022/12/17 19:19:10;;;;;;;54.08;36.33;;;;;;;10.18;100.00;98566.94;5030484;28;20573;-64
2022/12/17 19:21:36;;;;;;;52.47;31.90;;;;;;;9.99;100.00;98560.41;5030567;28;20352;-64
2022/12/17 19:24:05;;;;;;;58.65;37.67;;;;;;;9.83;100.00;98536.47;5030898;28;20680;-64
2022/12/17 19:26:31;;;;;;;57.55;35.42;;;;;;;9.97;100.00;98552.75;5030382;28;20299;-64
2022/12/17 19:28:58;;;;;;;41.78;28.13;;;;;;;9.78;100.00;98541.94;5030030;28;20619;-64
2022/12/17 19:31:26;;;;;;;39.78;25.85;;;;;;;10.09;100.00;98592.53;5069860;28;20197;-63
2022/12/17 19:33:58;;;;;;;42.33;26.92;;;;;;;9.87;100.00;98553.44;5072110;28;20694;-64
2022/12/17 19:36:26;;;;;;;44.33;27.85;;;;;;;10.09;100.00;98587.38;5072741;28;20184;-64
2022/12/17 19:38:53;;;;;;;37.40;24.10;;;;;;;10.11;100.00;98590.69;5072425;28;20192;-64
2022/12/17 19:41:18;;;;;;;24.33;17.95;;;;;;;9.79;100.00;98541.00;5072737;28;20181;-64
2022/12/17 19:43:45;;;;;;;24.98;14.48;;;;;;;10.14;100.00;98593.06;5072698;28;20557;-64
2022/12/17 19:46:16;;;;;;;26.38;17.65;;;;;;;9.90;100.00;98545.47;5072974;28;20181;-64
2022/12/17 19:48:43;;;;;;;24.02;17.67;;;;;;;10.00;100.00;98567.25;5073012;28;20200;-64
2022/12/17 19:51:11;;;;;;;19.33;12.73;;;;;;;10.31;100.00;98623.84;5071683;28;20184;-64
2022/12/17 19:53:38;;;;;;;17.55;14.18;;;;;;;9.93;100.00;98576.31;5072749;28;20212;-64
2022/12/17 19:56:30;;;;;;;17.17;12.15;;;;;;;10.30;100.00;98642.88;5072321;28;20238;-65
2022/12/17 19:59:00;;;;;;;27.50;18.80;;;;;;;10.07;100.00;98594.38;5071793;28;20185;-64
2022/12/17 20:01:29;;;;;;;20.13;13.30;;;;;;;10.33;100.00;98663.38;5073111;28;20196;-64
2022/12/17 20:03:55;;;;;;;16.33;12.88;;;;;;;10.36;100.00;98681.28;5072554;28;20181;-65
2022/12/17 20:06:23;;;;;;;20.50;14.00;;;;;;;10.42;100.00;98679.16;5072199;28;20184;-64
2022/12/17 20:08:49;;;;;;;21.17;14.65;;;;;;;10.12;100.00;98615.59;5071882;28;20181;-64
2022/12/17 20:11:34;;;;;;;22.17;15.20;;;;;;;10.47;100.00;98673.69;5072191;28;20196;-64
2022/12/17 20:14:05;;;;;;;16.58;10.93;;;;;;;10.57;100.00;98674.75;5072145;28;20666;-64
2022/12/17 20:16:39;;;;;;;14.00;9.77;;;;;;;10.30;100.00;98630.78;5072434;28;20197;-64
2022/12/17 20:19:09;;;;;;;12.85;9.63;;;;;;;10.53;100.00;98662.94;5071815;28;20560;-64
2022/12/17 20:21:34;;;;;;;16.00;11.00;;;;;;;10.32;100.00;98616.00;5072259;28;20216;-64
2022/12/17 20:24:00;;;;;;;17.23;11.70;;;;;;;10.36;100.00;98617.47;5071696;28;20554;-64
2022/12/17 20:26:25;;;;;;;15.00;10.90;;;;;;;10.51;100.00;98641.50;5072215;28;20176;-64
2022/12/17 20:28:51;;;;;;;15.90;11.40;;;;;;;10.59;100.00;98658.22;5071918;28;20180;-64
2022/12/17 20:31:17;;;;;;;15.40;11.55;;;;;;;10.34;100.00;98600.38;5071852;28;20196;-64
2022/12/17 20:33:42;;;;;;;16.15;11.38;;;;;;;10.66;100.00;98622.38;5071549;28;20211;-64
2022/12/17 20:36:13;;;;;;;7.63;4.15;;;;;;;10.51;100.00;98562.13;5072183;28;20238;-64
2022/12/17 20:38:40;;;;;;;6.90;4.40;;;;;;;10.67;100.00;98552.44;5071883;28;20264;-64
2022/12/17 20:41:23;;;;;;;5.72;4.22;;;;;;;11.11;100.00;98590.88;5071777;28;20173;-63
2022/12/17 20:43:49;;;;;;;4.88;3.75;;;;;;;10.93;100.00;98561.88;5071867;28;20211;-64
2022/12/17 20:46:17;;;;;;;5.38;3.72;;;;;;;11.05;100.00;98570.56;5071500;28;20540;-64
2022/12/17 20:48:43;;;;;;;4.05;3.35;;;;;;;11.52;100.00;98599.22;5071775;28;20177;-64
2022/12/17 20:51:17;;;;;;;5.15;4.65;;;;;;;11.41;100.00;98573.22;5071474;28;20585;-64
2022/12/17 20:53:43;;;;;;;4.72;4.25;;;;;;;11.73;100.00;98629.69;5071448;28;20200;-64
2022/12/17 20:56:11;;;;;;;5.07;4.07;;;;;;;11.50;100.00;98604.50;5071683;28;20178;-64
2022/12/17 20:58:38;;;;;;;5.78;3.83;;;;;;;11.00;100.00;98547.59;5071674;28;20185;-64
2022/12/17 21:01:12;;;;;;;3.90;3.50;;;;;;;11.07;100.00;98566.09;5071684;28;20294;-64
2022/12/17 21:03:38;;;;;;;6.30;3.65;;;;;;;11.58;100.00;98642.84;5073759;28;20187;-64
2022/12/17 21:06:26;;;;;;;5.15;3.50;;;;;;;11.19;100.00;98598.94;5075215;28;20177;-64
2022/12/17 21:08:53;;;;;;;4.63;3.80;;;;;;;11.50;100.00;98665.88;5076108;28;20200;-64
2022/12/17 21:11:25;;;;;;;7.00;3.55;;;;;;;11.25;100.00;98625.25;5075162;28;20188;-64
2022/12/17 21:13:52;;;;;;;5.60;3.45;;;;;;;11.21;100.00;98622.97;5075434;28;20279;-64
2022/12/17 21:16:20;;;;;;;3.67;3.08;;;;;;;11.28;100.00;98635.44;5075066;28;20181;-64
2022/12/17 21:18:46;;;;;;;6.78;3.10;;;;;;;11.22;100.00;98630.66;5075210;28;20612;-64
2022/12/17 21:21:16;;;;;;;4.68;3.35;;;;;;;10.93;100.00;98597.28;5075033;28;20213;-64
2022/12/17 21:23:41;;;;;;;3.90;3.38;;;;;;;10.98;100.00;98605.56;5075744;28;20199;-64
2022/12/17 21:26:22;;;;;;;2.90;2.70;;;;;;;11.17;100.00;98634.47;5072647;28;20272;-64
2022/12/17 21:28:49;;;;;;;6.80;3.80;;;;;;;11.41;100.00;98695.84;5072845;28;20169;-64
2022/12/17 21:31:18;;;;;;;4.80;3.72;;;;;;;11.23;100.00;98672.91;5072514;28;20204;-64
2022/12/17 21:33:48;;;;;;;6.68;3.75;;;;;;;11.32;100.00;98693.03;5072613;28;20201;-64
2022/12/17 21:36:15;;;;;;;6.75;3.85;;;;;;;11.31;100.00;98701.72;5072576;28;20260;-64
2022/12/17 21:38:41;;;;;;;5.43;4.43;;;;;;;10.76;100.00;98615.69;5072307;28;20226;-64
2022/12/17 21:41:12;;;;;;;6.70;4.50;;;;;;;10.96;100.00;98660.03;5072445;28;20276;-64
2022/12/17 21:43:39;;;;;;;9.60;5.18;;;;;;;10.92;100.00;98657.75;5072797;28;20608;-64
2022/12/17 21:46:06;;;;;;;10.82;7.40;;;;;;;10.90;100.00;98664.78;5072975;28;20646;-64
2022/12/17 21:48:32;;;;;;;12.57;6.80;;;;;;;11.09;100.00;98698.91;5052198;28;20193;-64
2022/12/17 21:50:57;;;;;;;7.95;6.40;;;;;;;11.17;100.00;98714.75;5052809;28;20196;-64
2022/12/17 21:53:22;;;;;;;7.90;6.75;;;;;;;11.14;100.00;98699.44;5052201;28;20234;-64
2022/12/17 21:55:48;;;;;;;13.30;6.95;;;;;;;11.18;100.00;98713.81;5051996;28;20184;-64
2022/12/17 21:58:14;;;;;;;9.88;7.25;;;;;;;10.97;100.00;98676.41;5071891;28;20346;-64
2022/12/17 22:00:41;;;;;;;11.68;8.07;;;;;;;11.21;100.00;98711.84;5071968;28;20173;-64
2022/12/17 22:03:07;;;;;;;10.82;9.10;;;;;;;10.92;100.00;98652.59;5032074;28;20189;-64
2022/12/17 22:05:35;;;;;;;14.85;9.93;;;;;;;11.19;100.00;98697.34;5032024;28;20186;-64
2022/12/17 22:08:00;;;;;;;13.05;8.43;;;;;;;11.11;100.00;98689.28;5031927;28;20379;-64
2022/12/17 22:10:26;;;;;;;10.00;7.55;;;;;;;11.12;100.00;98696.94;5031804;28;20274;-64
2022/12/17 22:15:38;;;;;;;8.50;7.13;;;;;;;11.08;100.00;98694.66;5032155;28;20201;-64
2022/12/17 22:18:04;;;;;;;11.15;6.95;;;;;;;10.77;100.00;98648.41;5031907;28;20187;-64
2022/12/17 22:20:29;;;;;;;9.07;6.30;;;;;;;10.72;100.00;98632.34;5050186;28;20205;-64
2022/12/17 22:22:55;;;;;;;11.55;5.53;;;;;;;11.05;100.00;98684.50;5051512;28;20347;-64
2022/12/17 22:25:20;;;;;;;7.50;5.30;;;;;;;11.11;100.00;98691.84;5051464;28;20205;-64
2022/12/17 22:27:45;;;;;;;6.63;4.63;;;;;;;11.11;100.00;98699.63;5051853;28;20272;-64
2022/12/17 22:33:01;;;;;;;5.97;4.25;;;;;;;10.81;100.00;98665.41;5051533;28;20255;-64
2022/12/17 22:35:33;;;;;;;5.50;4.07;;;;;;;10.90;100.00;98706.19;5051200;28;20185;-64
2022/12/17 22:37:58;;;;;;;6.63;4.25;;;;;;;10.52;100.00;98667.25;5051827;28;20300;-64
2022/12/17 22:40:24;;;;;;;9.23;4.40;;;;;;;10.75;100.00;98707.22;5061179;28;20652;-64
2022/12/17 22:45:37;;;;;;;7.60;4.38;;;;;;;10.91;100.00;98736.34;5073966;28;20219;-63
2022/12/17 22:48:02;;;;;;;5.15;4.53;;;;;;;10.91;100.00;98734.59;5073843;28;20329;-64
2022/12/17 22:50:28;;;;;;;4.93;4.22;;;;;;;10.87;100.00;98716.78;5073265;28;20663;-64
2022/12/17 22:52:56;;;;;;;13.82;8.88;;;;;;;10.91;100.00;98718.25;5073139;28;20201;-64
2022/12/17 22:55:21;;;;;;;8.25;5.70;;;;;;;10.83;100.00;98731.66;5073158;28;20261;-64
2022/12/17 22:57:47;;;;;;;6.75;5.50;;;;;;;9.95;100.00;98602.88;5073126;28;20272;-64
2022/12/17 23:00:25;;;;;;;13.55;8.10;;;;;;;10.98;100.00;98760.91;5073083;28;20196;-64
2022/12/17 23:02:52;;;;;;;9.82;7.78;;;;;;;10.65;100.00;98709.56;5073453;28;20603;-64
2022/12/17 23:05:18;;;;;;;10.23;8.82;;;;;;;10.86;100.00;98754.75;5073047;28;20205;-64
2022/12/17 23:07:44;;;;;;;11.02;6.78;;;;;;;10.71;100.00;98744.56;5073075;28;20177;-64
2022/12/17 23:10:09;;;;;;;6.45;5.85;;;;;;;10.98;100.00;98784.22;5072920;28;20609;-64
2022/12/17 23:12:50;;;;;;;9.90;6.55;;;;;;;11.07;100.00;98776.69;5072962;28;20189;-64
2022/12/17 23:15:36;;;;;;;8.98;6.65;;;;;;;10.97;100.00;98751.50;5072925;28;20207;-64
2022/12/17 23:18:05;;;;;;;12.70;7.95;;;;;;;11.06;100.00;98756.06;5073352;28;20639;-64
2022/12/17 23:20:34;;;;;;;12.82;7.70;;;;;;;10.80;100.00;98676.69;5072809;28;20185;-64
2022/12/17 23:23:00;;;;;;;11.52;7.43;;;;;;;10.83;100.00;98627.28;5069176;28;20185;-64
2022/12/17 23:25:27;;;;;;;9.02;8.02;;;;;;;10.86;100.00;98655.56;5072633;28;20177;-64
2022/12/17 23:27:55;;;;;;;7.85;5.70;;;;;;;11.25;100.00;98752.19;5071996;28;20753;-64
2022/12/17 23:30:23;;;;;;;4.55;4.10;;;;;;;11.39;100.00;98749.50;5072618;28;20201;-64
2022/12/17 23:33:08;;;;;;;5.47;4.30;;;;;;;11.64;100.00;98766.88;5073002;28;20192;-64
2022/12/17 23:35:36;;;;;;;5.10;4.10;;;;;;;11.65;100.00;98773.69;5070661;28;20274;-64
2022/12/17 23:38:02;;;;;;;6.75;4.63;;;;;;;11.01;100.00;98689.06;5070491;28;20283;-64
2022/12/17 23:40:28;;;;;;;6.68;4.15;;;;;;;11.43;100.00;98778.66;5053620;28;20188;-64
2022/12/17 23:42:56;;;;;;;9.85;4.20;;;;;;;11.10;100.00;98735.03;5069965;28;20197;-64
2022/12/17 23:45:21;;;;;;;15.57;5.47;;;;;;;11.07;100.00;98737.00;5070216;28;20189;-64
2022/12/17 23:47:47;;;;;;;8.95;4.95;;;;;;;10.80;100.00;98705.16;5070078;28;20177;-64
2022/12/17 23:50:13;;;;;;;8.48;5.40;;;;;;;10.88;100.00;98718.41;5070230;28;20189;-64
2022/12/17 23:52:39;;;;;;;5.65;4.63;;;;;;;11.34;100.00;98784.41;5053466;28;20181;-64
2022/12/17 23:55:06;;;;;;;11.60;5.47;;;;;;;11.00;100.00;98759.06;5069949;28;20280;-64
2022/12/17 23:57:34;;;;;;;10.52;4.82;;;;;;;11.03;100.00;98779.59;5054182;28;20185;-64
2022/12/17 23:59:59;;;;;;;6.20;4.75;;;;;;;10.99;100.00;98773.78;5070508;28;20242;-64
